createdAt,value
2022-08-30T00:01:59.069Z,15.90
2022-08-30T00:04:28.672Z,17.73
2022-08-30T00:06:56.657Z,15.77
2022-08-30T00:09:24.717Z,16.13
2022-08-30T00:11:54.067Z,17.50
2022-08-30T00:14:22.211Z,17.17
2022-08-30T00:16:51.030Z,18.40
2022-08-30T00:19:19.314Z,17.23
2022-08-30T00:21:48.618Z,18.53
2022-08-30T00:24:16.838Z,17.53
2022-08-30T00:26:44.633Z,18.17
2022-08-30T00:29:12.998Z,17.43
2022-08-30T00:31:41.332Z,17.47
2022-08-30T00:34:09.762Z,17.10
2022-08-30T00:36:37.723Z,17.07
2022-08-30T00:39:07.974Z,18.03
2022-08-30T00:41:37.236Z,16.13
2022-08-30T00:44:05.905Z,17.87
2022-08-30T00:46:34.122Z,17.30
2022-08-30T00:49:04.406Z,16.90
2022-08-30T00:51:33.822Z,16.83
2022-08-30T00:54:02.300Z,15.43
2022-08-30T00:56:32.331Z,16.97
2022-08-30T00:59:01.658Z,16.53
2022-08-30T01:01:30.640Z,15.03
2022-08-30T01:04:02.404Z,16.07
2022-08-30T01:06:32.461Z,15.17
2022-08-30T01:09:02.141Z,17.23
2022-08-30T01:11:33.174Z,15.87
2022-08-30T01:14:01.560Z,16.80
2022-08-30T01:16:31.747Z,16.23
2022-08-30T01:19:00.482Z,16.37
2022-08-30T01:21:31.253Z,16.57
2022-08-30T01:24:03.703Z,15.63
2022-08-30T01:26:32.185Z,14.83
2022-08-30T01:29:02.081Z,16.13
2022-08-30T01:31:30.142Z,15.33
2022-08-30T01:33:58.534Z,16.17
2022-08-30T01:36:26.334Z,16.40
2022-08-30T01:38:55.940Z,17.70
2022-08-30T01:41:26.446Z,16.20
2022-08-30T01:43:55.908Z,16.43
2022-08-30T01:46:27.857Z,17.43
2022-08-30T01:48:56.481Z,16.73
2022-08-30T01:51:25.099Z,16.33
2022-08-30T01:53:53.821Z,15.23
2022-08-30T01:56:22.083Z,16.70
2022-08-30T01:58:51.913Z,16.37
2022-08-30T02:01:21.257Z,15.90
2022-08-30T02:03:49.255Z,15.90
2022-08-30T02:06:18.585Z,15.17
2022-08-30T02:08:47.885Z,15.57
2022-08-30T02:11:16.828Z,15.93
2022-08-30T02:13:45.680Z,15.97
2022-08-30T02:16:17.333Z,16.33
2022-08-30T02:18:45.663Z,16.97
2022-08-30T02:21:14.629Z,17.17
2022-08-30T02:23:43.242Z,14.13
2022-08-30T02:26:11.874Z,14.93
2022-08-30T02:28:49.169Z,14.77
2022-08-30T02:31:20.678Z,13.63
2022-08-30T02:33:50.319Z,12.43
2022-08-30T02:36:18.926Z,11.20
2022-08-30T02:38:47.107Z,10.97
2022-08-30T02:41:14.950Z,10.93
2022-08-30T02:43:43.196Z,10.83
2022-08-30T02:46:13.881Z,9.17
2022-08-30T02:48:46.198Z,9.87
2022-08-30T02:51:15.231Z,10.00
2022-08-30T02:53:44.233Z,9.77
2022-08-30T02:56:12.719Z,10.63
2022-08-30T02:58:42.630Z,12.77
2022-08-30T03:01:12.455Z,12.17
2022-08-30T03:03:40.584Z,14.40
2022-08-30T03:06:11.020Z,14.80
2022-08-30T03:08:38.953Z,15.90
2022-08-30T03:11:09.091Z,14.93
2022-08-30T03:13:37.097Z,15.07
2022-08-30T03:16:05.298Z,16.40
2022-08-30T03:18:33.880Z,16.10
2022-08-30T03:21:01.886Z,15.53
2022-08-30T03:23:31.599Z,15.77
2022-08-30T03:25:59.525Z,15.17
2022-08-30T03:28:27.449Z,14.93
2022-08-30T03:30:56.312Z,15.43
2022-08-30T03:33:24.841Z,15.57
2022-08-30T03:35:53.233Z,16.23
2022-08-30T03:38:21.745Z,16.10
2022-08-30T03:40:51.663Z,16.00
2022-08-30T03:43:19.587Z,14.50
2022-08-30T03:45:47.546Z,16.50
2022-08-30T03:48:15.739Z,15.47
2022-08-30T03:50:43.579Z,16.90
2022-08-30T03:53:11.380Z,15.87
2022-08-30T03:55:39.947Z,15.43
2022-08-30T03:58:09.514Z,14.57
2022-08-30T04:00:37.688Z,14.93
2022-08-30T04:03:06.187Z,15.83
2022-08-30T04:05:34.226Z,16.33
2022-08-30T04:08:01.987Z,15.23
2022-08-30T04:10:29.897Z,12.40
2022-08-30T04:12:59.330Z,12.00
2022-08-30T04:15:30.250Z,11.57
2022-08-30T04:17:58.349Z,11.67
2022-08-30T04:20:26.397Z,10.77
2022-08-30T04:22:54.462Z,11.37
2022-08-30T04:25:22.576Z,11.20
2022-08-30T04:27:50.837Z,10.83
2022-08-30T04:30:19.176Z,11.10
2022-08-30T04:32:48.945Z,11.37
2022-08-30T04:35:17.918Z,11.57
2022-08-30T04:37:47.001Z,11.90
2022-08-30T04:40:16.041Z,11.47
2022-08-30T04:42:45.572Z,11.77
2022-08-30T04:45:16.111Z,11.13
2022-08-30T04:47:44.430Z,12.20
2022-08-30T04:50:16.129Z,10.93
2022-08-30T04:52:44.102Z,10.67
2022-08-30T04:55:15.683Z,10.77
2022-08-30T04:57:45.959Z,11.40
2022-08-30T05:00:14.745Z,11.07
2022-08-30T05:02:44.503Z,12.37
2022-08-30T05:05:31.825Z,12.00
2022-08-30T05:08:01.000Z,11.73
2022-08-30T05:10:30.547Z,11.60
2022-08-30T05:12:58.929Z,12.53
2022-08-30T05:15:26.709Z,13.13
2022-08-30T05:17:54.779Z,12.97
2022-08-30T05:20:24.185Z,13.57
2022-08-30T05:22:53.626Z,13.47
2022-08-30T05:25:23.315Z,14.23
2022-08-30T05:27:52.520Z,13.20
2022-08-30T05:30:21.181Z,15.30
2022-08-30T05:32:49.778Z,15.53
2022-08-30T05:35:22.225Z,13.03
2022-08-30T05:37:54.819Z,21.10
2022-08-30T05:40:24.215Z,16.83
2022-08-30T05:42:53.120Z,17.10
2022-08-30T05:45:21.671Z,20.53
2022-08-30T05:47:49.426Z,23.13
2022-08-30T05:50:19.499Z,20.00
2022-08-30T05:52:47.355Z,17.50
2022-08-30T05:55:16.621Z,17.77
2022-08-30T05:57:44.810Z,18.53
2022-08-30T06:00:15.246Z,17.93
2022-08-30T06:02:43.757Z,16.33
2022-08-30T06:05:14.230Z,15.67
2022-08-30T06:07:42.721Z,15.30
2022-08-30T06:10:12.538Z,15.83
2022-08-30T06:12:42.273Z,17.93
2022-08-30T06:15:10.834Z,16.90
2022-08-30T06:17:39.861Z,16.93
2022-08-30T06:20:09.343Z,16.37
2022-08-30T06:22:38.740Z,15.77
2022-08-30T06:25:08.691Z,16.57
2022-08-30T06:27:36.676Z,16.10
2022-08-30T06:30:08.661Z,15.90
2022-08-30T06:32:38.245Z,15.53
2022-08-30T06:35:07.274Z,16.37
2022-08-30T06:37:35.630Z,16.13
2022-08-30T06:40:05.399Z,16.10
2022-08-30T06:42:34.332Z,15.77
2022-08-30T06:45:10.674Z,16.33
2022-08-30T06:47:41.058Z,16.20
2022-08-30T06:50:11.750Z,15.17
2022-08-30T06:52:40.237Z,15.70
2022-08-30T06:55:08.456Z,15.30
2022-08-30T06:57:36.325Z,15.10
2022-08-30T07:00:05.956Z,16.37
2022-08-30T07:02:33.896Z,14.60
2022-08-30T07:05:03.622Z,16.63
2022-08-30T07:07:31.665Z,16.47
2022-08-30T07:09:59.814Z,16.20
2022-08-30T07:12:27.661Z,18.00
2022-08-30T07:14:55.784Z,16.57
2022-08-30T07:17:41.148Z,18.03
2022-08-30T07:20:11.779Z,17.87
2022-08-30T07:22:39.672Z,17.70
2022-08-30T07:25:07.699Z,18.83
2022-08-30T07:27:35.817Z,18.33
2022-08-30T07:30:04.310Z,19.87
2022-08-30T07:32:32.689Z,17.63
2022-08-30T07:35:03.951Z,17.67
2022-08-30T07:37:33.116Z,17.00
2022-08-30T07:40:01.207Z,19.80
2022-08-30T07:42:28.976Z,17.37
2022-08-30T07:44:57.330Z,18.23
2022-08-30T07:47:25.290Z,16.17
2022-08-30T07:49:54.133Z,17.53
2022-08-30T07:52:22.068Z,16.67
2022-08-30T07:54:52.779Z,16.37
2022-08-30T07:57:21.229Z,16.10
2022-08-30T07:59:49.166Z,17.10
2022-08-30T08:02:17.230Z,17.77
2022-08-30T08:04:45.790Z,16.20
2022-08-30T08:07:13.995Z,17.47
2022-08-30T08:09:42.332Z,19.42
2022-08-30T08:12:12.260Z,16.10
2022-08-30T08:14:41.765Z,17.30
2022-08-30T08:17:09.637Z,17.38
2022-08-30T08:19:37.651Z,17.77
2022-08-30T08:22:21.813Z,17.13
2022-08-30T08:24:50.071Z,17.33
2022-08-30T08:27:19.518Z,17.43
2022-08-30T08:29:47.294Z,16.48
2022-08-30T08:32:16.203Z,18.15
2022-08-30T08:34:46.317Z,19.55
2022-08-30T08:37:17.295Z,18.80
2022-08-30T08:39:48.747Z,18.92
2022-08-30T08:42:23.272Z,18.60
2022-08-30T08:44:57.294Z,18.77
2022-08-30T08:47:32.718Z,19.52
2022-08-30T08:50:03.237Z,20.95
2022-08-30T08:52:49.463Z,19.90
2022-08-30T08:55:19.314Z,20.17
2022-08-30T08:57:47.970Z,19.43
2022-08-30T09:00:18.238Z,19.40
2022-08-30T09:02:47.450Z,18.80
2022-08-30T09:05:17.045Z,19.57
2022-08-30T09:07:47.101Z,18.17
2022-08-30T09:10:14.942Z,17.80
2022-08-30T09:12:44.851Z,17.08
2022-08-30T09:15:18.075Z,16.48
2022-08-30T09:18:01.498Z,17.17
2022-08-30T09:20:36.082Z,17.13
2022-08-30T09:23:22.290Z,15.27
2022-08-30T09:25:52.172Z,15.10
2022-08-30T09:28:23.083Z,13.23
2022-08-30T09:31:02.016Z,12.32
2022-08-30T09:33:30.679Z,14.63
2022-08-30T09:36:12.069Z,15.13
2022-08-30T09:38:40.423Z,15.30
2022-08-30T09:41:23.591Z,15.90
2022-08-30T09:44:06.151Z,15.73
2022-08-30T09:46:34.386Z,15.57
2022-08-30T09:49:02.328Z,14.77
2022-08-30T09:51:38.876Z,15.80
2022-08-30T09:54:17.779Z,14.23
2022-08-30T09:56:50.610Z,14.80
2022-08-30T09:59:27.349Z,14.65
2022-08-30T10:02:02.076Z,14.98
2022-08-30T10:04:36.839Z,15.23
2022-08-30T10:07:10.908Z,14.77
2022-08-30T10:09:43.739Z,13.32
2022-08-30T10:12:15.950Z,13.82
2022-08-30T10:14:51.201Z,13.88
2022-08-30T10:17:25.898Z,15.00
2022-08-30T10:20:03.866Z,14.07
2022-08-30T10:22:36.279Z,13.02
2022-08-30T10:25:08.591Z,14.00
2022-08-30T10:27:40.302Z,13.50
2022-08-30T10:30:10.530Z,13.27
2022-08-30T10:32:43.974Z,14.15
2022-08-30T10:35:19.240Z,14.43
2022-08-30T10:37:51.893Z,15.25
2022-08-30T10:40:39.461Z,14.35
2022-08-30T10:43:10.331Z,13.00
2022-08-30T10:45:42.078Z,12.85
2022-08-30T10:48:15.670Z,13.27
2022-08-30T10:50:49.956Z,14.82
2022-08-30T10:53:21.534Z,13.85
2022-08-30T10:55:51.433Z,13.93
2022-08-30T10:58:20.250Z,11.93
2022-08-30T11:00:57.345Z,12.18
2022-08-30T11:03:38.547Z,12.07
2022-08-30T11:06:24.152Z,12.02
2022-08-30T11:12:00.717Z,11.77
2022-08-30T11:14:29.826Z,11.50
2022-08-30T11:17:02.280Z,11.70
2022-08-30T11:19:36.127Z,11.02
2022-08-30T11:22:13.151Z,10.88
2022-08-30T11:24:57.622Z,10.63
2022-08-30T11:30:37.368Z,10.52
2022-08-30T11:33:26.900Z,10.45
2022-08-30T11:35:55.626Z,9.38
2022-08-30T11:38:38.230Z,10.93
2022-08-30T11:41:10.579Z,8.88
2022-08-30T11:43:53.150Z,10.40
2022-08-30T11:46:24.508Z,9.15
2022-08-30T11:48:55.829Z,9.88
2022-08-30T11:51:33.770Z,9.00
2022-08-30T11:54:08.006Z,9.40
2022-08-30T11:56:44.092Z,10.55
2022-08-30T11:59:20.311Z,10.05
2022-08-30T12:01:52.224Z,9.48
2022-08-30T12:04:34.860Z,10.65
2022-08-30T12:07:07.138Z,10.05
2022-08-30T12:10:03.414Z,9.52
2022-08-30T12:13:02.045Z,9.57
2022-08-30T12:15:53.551Z,9.40
2022-08-30T12:18:30.074Z,10.05
2022-08-30T12:21:01.347Z,9.77
2022-08-30T12:23:37.294Z,9.75
2022-08-30T12:26:16.905Z,9.00
2022-08-30T12:28:51.317Z,11.02
2022-08-30T12:31:21.492Z,9.88
2022-08-30T12:33:51.771Z,10.05
2022-08-30T12:36:32.336Z,10.10
2022-08-30T12:39:22.847Z,9.55
2022-08-30T12:41:50.954Z,10.45
2022-08-30T12:44:21.304Z,10.93
2022-08-30T12:46:51.965Z,10.23
2022-08-30T12:49:22.480Z,11.70
2022-08-30T12:51:51.267Z,11.30
2022-08-30T12:54:21.882Z,11.23
2022-08-30T12:56:55.147Z,10.65
2022-08-30T12:59:41.642Z,10.75
2022-08-30T13:02:20.229Z,11.50
2022-08-30T13:04:50.553Z,11.40
2022-08-30T13:07:30.384Z,11.20
2022-08-30T13:10:06.708Z,11.48
2022-08-30T13:12:38.566Z,11.93
2022-08-30T13:15:19.843Z,11.57
2022-08-30T13:17:48.372Z,11.10
2022-08-30T13:20:25.384Z,11.77
2022-08-30T13:23:03.314Z,11.75
2022-08-30T13:25:33.058Z,11.10
2022-08-30T13:28:01.432Z,12.57
2022-08-30T13:30:30.571Z,11.80
2022-08-30T13:33:01.536Z,11.95
2022-08-30T13:35:31.123Z,10.73
2022-08-30T13:37:59.428Z,11.07
2022-08-30T13:40:27.398Z,10.90
2022-08-30T13:42:56.704Z,10.68
2022-08-30T13:45:42.219Z,11.80
2022-08-30T13:48:11.894Z,12.35
2022-08-30T13:50:41.120Z,11.02
2022-08-30T13:53:10.622Z,11.65
2022-08-30T13:55:39.466Z,11.60
2022-08-30T13:58:13.656Z,12.13
2022-08-30T14:00:41.838Z,11.68
2022-08-30T14:03:11.443Z,12.63
2022-08-30T14:05:49.410Z,11.70
2022-08-30T14:11:07.818Z,10.82
2022-08-30T14:13:38.063Z,11.57
2022-08-30T14:18:56.287Z,10.32
2022-08-30T14:21:25.027Z,11.02
2022-08-30T14:23:52.992Z,11.60
2022-08-30T14:26:22.557Z,11.77
2022-08-30T14:28:53.476Z,16.17
2022-08-30T14:31:21.643Z,12.15
2022-08-30T14:33:50.966Z,11.52
2022-08-30T14:36:19.067Z,10.93
2022-08-30T14:38:47.946Z,11.15
2022-08-30T14:41:17.015Z,10.98
2022-08-30T14:43:45.777Z,11.57
2022-08-30T14:46:15.576Z,11.80
2022-08-30T14:48:45.021Z,10.95
2022-08-30T14:51:15.608Z,11.52
2022-08-30T14:53:43.713Z,10.70
2022-08-30T14:56:12.285Z,12.18
2022-08-30T14:58:40.826Z,12.55
2022-08-30T15:01:10.113Z,12.27
2022-08-30T15:03:42.515Z,11.23
2022-08-30T15:06:10.468Z,11.20
2022-08-30T15:08:39.393Z,11.88
2022-08-30T15:11:09.156Z,12.20
2022-08-30T15:13:40.006Z,11.82
2022-08-30T15:16:11.829Z,11.10
2022-08-30T15:18:42.671Z,11.73
2022-08-30T15:21:13.591Z,13.32
2022-08-30T15:23:42.099Z,12.57
2022-08-30T15:26:10.313Z,14.18
2022-08-30T15:28:38.208Z,13.63
2022-08-30T15:31:08.991Z,13.05
2022-08-30T15:33:37.213Z,12.63
2022-08-30T15:36:06.178Z,13.63
2022-08-30T15:38:36.011Z,13.38
2022-08-30T15:41:07.187Z,12.82
2022-08-30T15:43:35.399Z,12.77
2022-08-30T15:46:16.955Z,12.60
2022-08-30T15:48:45.448Z,12.73
2022-08-30T15:51:13.868Z,12.35
2022-08-30T15:53:43.659Z,12.93
2022-08-30T15:56:12.161Z,12.30
2022-08-30T15:58:40.756Z,11.68
2022-08-30T16:01:10.096Z,12.07
2022-08-30T16:03:40.363Z,12.40
2022-08-30T16:06:11.971Z,12.02
2022-08-30T16:08:40.069Z,12.18
2022-08-30T16:11:09.850Z,11.88
2022-08-30T16:13:42.117Z,11.07
2022-08-30T16:16:11.898Z,12.30
2022-08-30T16:18:40.267Z,11.75
2022-08-30T16:21:09.528Z,12.65
2022-08-30T16:23:37.898Z,11.88
2022-08-30T16:26:06.608Z,12.70
2022-08-30T16:28:38.003Z,13.90
2022-08-30T16:31:07.638Z,11.43
2022-08-30T16:33:39.946Z,12.10
2022-08-30T16:36:10.911Z,13.13
2022-08-30T16:38:40.259Z,13.35
2022-08-30T16:41:09.608Z,12.55
2022-08-30T16:43:39.525Z,12.90
2022-08-30T16:46:12.816Z,11.20
2022-08-30T16:48:41.179Z,11.98
2022-08-30T16:51:10.161Z,11.07
2022-08-30T16:53:38.661Z,12.10
2022-08-30T16:56:08.361Z,11.52
2022-08-30T16:58:36.585Z,11.98
2022-08-30T17:01:06.380Z,11.63
2022-08-30T17:03:35.401Z,10.48
2022-08-30T17:06:07.103Z,10.38
2022-08-30T17:08:35.556Z,10.82
2022-08-30T17:11:03.461Z,11.82
2022-08-30T17:13:33.139Z,11.27
2022-08-30T17:16:02.882Z,11.68
2022-08-30T17:18:33.060Z,11.70
2022-08-30T17:21:00.782Z,11.23
2022-08-30T17:23:28.943Z,12.95
2022-08-30T17:25:58.180Z,12.45
2022-08-30T17:28:27.094Z,12.65
2022-08-30T17:30:55.597Z,12.30
2022-08-30T17:33:23.679Z,13.48
2022-08-30T17:35:54.579Z,12.88
2022-08-30T17:38:23.616Z,12.30
2022-08-30T17:40:51.552Z,12.32
2022-08-30T17:43:20.356Z,13.40
2022-08-30T17:45:50.535Z,13.85
2022-08-30T17:48:18.500Z,14.75
2022-08-30T17:50:46.786Z,13.88
2022-08-30T17:53:17.396Z,13.68
2022-08-30T17:55:48.875Z,13.80
2022-08-30T17:58:17.140Z,12.65
2022-08-30T18:00:50.321Z,12.52
2022-08-30T18:03:18.800Z,13.27
2022-08-30T18:05:47.450Z,13.60
2022-08-30T18:08:15.548Z,13.15
2022-08-30T18:10:44.872Z,13.15
2022-08-30T18:13:15.148Z,14.43
2022-08-30T18:18:31.979Z,16.98
2022-08-30T18:20:59.931Z,16.70
2022-08-30T18:23:28.249Z,15.40
2022-08-30T18:25:58.568Z,15.63
2022-08-30T18:28:27.805Z,16.25
2022-08-30T18:30:57.155Z,15.40
2022-08-30T18:33:25.099Z,16.38
2022-08-30T18:35:53.614Z,14.77
2022-08-30T18:38:23.832Z,16.67
2022-08-30T18:40:52.755Z,15.02
2022-08-30T18:43:24.717Z,16.15
2022-08-30T18:45:58.711Z,17.23
2022-08-30T18:48:27.264Z,16.60
2022-08-30T18:50:55.694Z,16.20
2022-08-30T18:53:28.752Z,15.30
2022-08-30T18:55:57.769Z,15.60
2022-08-30T18:58:27.084Z,15.70
2022-08-30T19:00:56.965Z,15.23
2022-08-30T19:03:24.932Z,15.93
2022-08-30T19:05:53.469Z,15.90
2022-08-30T19:08:21.514Z,16.53
2022-08-30T19:10:49.341Z,15.47
2022-08-30T19:13:17.609Z,17.33
2022-08-30T19:15:46.935Z,17.23
2022-08-30T19:18:17.429Z,16.47
2022-08-30T19:20:45.783Z,17.50
2022-08-30T19:23:15.364Z,17.57
2022-08-30T19:25:43.908Z,17.13
2022-08-30T19:28:12.496Z,18.03
2022-08-30T19:30:40.542Z,17.53
2022-08-30T19:33:11.643Z,17.10
2022-08-30T19:35:39.899Z,18.13
2022-08-30T19:38:07.750Z,16.90
2022-08-30T19:40:36.124Z,16.87
2022-08-30T19:43:05.304Z,17.47
2022-08-30T19:45:33.882Z,17.07
2022-08-30T19:48:02.315Z,17.57
2022-08-30T19:50:31.650Z,17.83
2022-08-30T19:52:59.526Z,16.90
2022-08-30T19:55:31.379Z,17.47
2022-08-30T19:57:59.482Z,17.40
2022-08-30T20:00:27.311Z,17.03
2022-08-30T20:02:59.222Z,15.87
2022-08-30T20:05:27.397Z,16.67
2022-08-30T20:07:58.373Z,14.97
2022-08-30T20:10:26.874Z,13.90
2022-08-30T20:12:54.878Z,16.70
2022-08-30T20:15:22.916Z,14.83
2022-08-30T20:18:05.058Z,14.53
2022-08-30T20:20:36.703Z,12.40
2022-08-30T20:23:06.573Z,12.50
2022-08-30T20:24:26.634Z,13.23
2022-08-30T20:25:36.300Z,12.53
2022-08-30T20:28:04.823Z,11.57
2022-08-30T20:30:33.454Z,11.93
2022-08-30T20:33:06.879Z,12.17
2022-08-30T20:35:36.819Z,11.83
2022-08-30T20:38:06.692Z,12.10
2022-08-30T20:40:37.317Z,12.80
2022-08-30T20:43:05.945Z,11.97
2022-08-30T20:45:34.278Z,13.03
2022-08-30T20:48:03.263Z,13.90
2022-08-30T20:50:31.354Z,14.13
2022-08-30T20:52:59.420Z,13.47
2022-08-30T20:55:27.227Z,14.27
2022-08-30T20:57:59.204Z,13.60
2022-08-30T21:00:27.474Z,14.43
2022-08-30T21:02:55.299Z,12.67
2022-08-30T21:05:23.549Z,13.73
2022-08-30T21:07:51.356Z,14.33
2022-08-30T21:10:23.192Z,13.97
2022-08-30T21:12:51.444Z,13.93
2022-08-30T21:15:37.315Z,15.40
2022-08-30T21:18:06.575Z,15.23
2022-08-30T21:20:34.291Z,14.93
2022-08-30T21:23:02.065Z,15.73
2022-08-30T21:25:31.144Z,15.77
2022-08-30T21:27:59.537Z,14.30
2022-08-30T21:30:29.551Z,14.00
2022-08-30T21:33:00.109Z,14.37
2022-08-30T21:35:45.929Z,14.83
2022-08-30T21:38:14.284Z,15.47
2022-08-30T21:40:42.454Z,14.10
2022-08-30T21:43:10.912Z,14.13
2022-08-30T21:45:40.653Z,13.40
2022-08-30T21:48:08.785Z,14.20
2022-08-30T21:50:39.645Z,14.57
2022-08-30T21:53:07.682Z,13.73
2022-08-30T21:55:35.488Z,14.80
2022-08-30T21:58:04.561Z,15.13
2022-08-30T22:00:33.779Z,13.97
2022-08-30T22:03:05.369Z,15.13
2022-08-30T22:05:33.440Z,16.37
2022-08-30T22:08:01.262Z,13.80
2022-08-30T22:10:32.992Z,14.93
2022-08-30T22:13:03.619Z,15.33
2022-08-30T22:15:31.653Z,15.50
2022-08-30T22:18:00.695Z,14.50
2022-08-30T22:20:31.490Z,15.10
2022-08-30T22:22:59.769Z,15.37
2022-08-30T22:25:27.944Z,15.53
2022-08-30T22:27:56.154Z,15.33
2022-08-30T22:30:24.974Z,15.10
2022-08-30T22:32:55.557Z,16.00
2022-08-30T22:35:23.781Z,15.43
2022-08-30T22:37:53.641Z,15.30
2022-08-30T22:40:22.424Z,16.50
2022-08-30T22:42:50.256Z,15.27
2022-08-30T22:45:17.996Z,15.30
2022-08-30T22:47:45.862Z,15.97
2022-08-30T22:50:14.391Z,14.50
2022-08-30T22:52:42.699Z,16.03
2022-08-30T22:55:12.041Z,14.67
2022-08-30T22:57:40.540Z,15.93
2022-08-30T23:00:11.877Z,15.90
2022-08-30T23:02:39.919Z,15.83
2022-08-30T23:05:08.578Z,15.33
2022-08-30T23:07:36.494Z,15.47
2022-08-30T23:10:05.320Z,16.27
2022-08-30T23:12:37.934Z,16.40
2022-08-30T23:15:06.745Z,15.73
2022-08-30T23:17:39.690Z,16.23
2022-08-30T23:20:09.616Z,16.50
2022-08-30T23:22:37.737Z,15.47
2022-08-30T23:25:24.398Z,16.00
2022-08-30T23:28:17.492Z,15.97
2022-08-30T23:31:06.401Z,16.40
2022-08-30T23:33:51.714Z,16.70
2022-08-30T23:36:36.846Z,16.30
2022-08-30T23:39:22.932Z,15.53
2022-08-30T23:42:08.147Z,16.33
2022-08-30T23:44:55.212Z,18.03
2022-08-30T23:47:40.625Z,16.80
2022-08-30T23:50:26.376Z,15.73
2022-08-30T23:53:11.902Z,16.47
2022-08-30T23:55:57.993Z,16.13
2022-08-30T23:58:44.017Z,15.50
